createdAt,value
2018-11-14T00:01:39.765Z,100.07
2018-11-14T00:04:38.585Z,99.17
2018-11-14T00:07:31.967Z,98.33
2018-11-14T00:10:43.494Z,98.85
2018-11-14T00:13:37.500Z,97.37
2018-11-14T00:16:31.048Z,96.75
2018-11-14T00:19:24.650Z,92.15
2018-11-14T00:22:18.226Z,94.13
2018-11-14T00:25:12.007Z,92.78
2018-11-14T00:28:05.677Z,92.27
2018-11-14T00:31:02.866Z,93.33
2018-11-14T00:33:59.535Z,92.20
2018-11-14T00:36:53.710Z,91.65
2018-11-14T00:39:50.188Z,91.05
2018-11-14T00:42:44.193Z,90.60
2018-11-14T00:45:37.818Z,90.50
2018-11-14T00:48:31.700Z,87.75
2018-11-14T00:51:25.277Z,87.97
2018-11-14T00:54:18.873Z,87.25
2018-11-14T00:57:12.698Z,89.30
2018-11-14T01:00:06.982Z,84.92
2018-11-14T01:03:03.798Z,84.20
2018-11-14T01:05:57.718Z,86.17
2018-11-14T01:08:51.314Z,82.62
2018-11-14T01:11:45.168Z,84.62
2018-11-14T01:14:38.724Z,84.87
2018-11-14T01:17:32.714Z,81.50
2018-11-14T01:20:26.310Z,83.10
2018-11-14T01:23:19.968Z,82.08
2018-11-14T01:26:14.139Z,81.30
2018-11-14T01:29:11.052Z,79.60
2018-11-14T01:32:02.211Z,81.67
2018-11-14T01:34:56.183Z,76.60
2018-11-14T01:37:50.128Z,79.80
2018-11-14T01:40:44.209Z,80.95
2018-11-14T01:43:39.660Z,76.67
2018-11-14T01:46:33.500Z,79.05
2018-11-14T01:49:27.352Z,78.02
2018-11-14T01:52:21.259Z,76.22
2018-11-14T01:55:19.621Z,78.85
2018-11-14T01:58:13.021Z,76.17
2018-11-14T02:01:06.466Z,74.35
2018-11-14T02:04:03.478Z,75.40
2018-11-14T02:06:57.014Z,77.65
2018-11-14T02:09:50.729Z,75.42
2018-11-14T02:12:45.073Z,74.10
2018-11-14T02:15:39.284Z,75.65
2018-11-14T02:18:32.565Z,72.40
2018-11-14T02:21:26.713Z,73.35
2018-11-14T02:24:23.790Z,71.47
2018-11-14T02:27:19.644Z,71.60
2018-11-14T02:30:15.409Z,71.87
2018-11-14T02:33:18.518Z,72.82
2018-11-14T02:36:12.260Z,70.78
2018-11-14T02:39:06.312Z,69.22
2018-11-14T02:42:00.391Z,71.17
2018-11-14T02:44:54.292Z,69.07
2018-11-14T02:47:47.562Z,73.02
2018-11-14T02:50:41.278Z,69.60
2018-11-14T02:53:35.617Z,68.85
2018-11-14T02:56:29.632Z,70.87
2018-11-14T02:59:23.415Z,68.75
2018-11-14T03:02:17.296Z,66.92
2018-11-14T03:05:12.531Z,67.45
2018-11-14T03:08:06.250Z,68.65
2018-11-14T03:10:59.717Z,67.75
2018-11-14T03:13:53.813Z,68.07
2018-11-14T03:16:47.776Z,64.07
2018-11-14T03:19:42.040Z,64.25
2018-11-14T03:22:35.518Z,66.22
2018-11-14T03:25:32.571Z,62.60
2018-11-14T03:28:27.412Z,64.47
2018-11-14T03:31:21.472Z,65.37
2018-11-14T03:34:15.561Z,64.60
2018-11-14T03:37:10.130Z,63.98
2018-11-14T03:40:04.551Z,64.75
2018-11-14T03:42:58.972Z,64.95
2018-11-14T03:45:53.047Z,63.73
2018-11-14T03:48:49.780Z,62.27
2018-11-14T03:51:43.716Z,63.68
2018-11-14T03:54:37.757Z,64.50
2018-11-14T03:57:31.802Z,63.33
2018-11-14T04:00:26.134Z,64.22
2018-11-14T04:03:20.885Z,65.72
2018-11-14T04:06:14.610Z,60.90
2018-11-14T04:09:11.137Z,63.13
2018-11-14T04:12:05.517Z,65.42
2018-11-14T04:14:59.643Z,62.98
2018-11-14T04:17:54.119Z,63.50
2018-11-14T04:20:48.388Z,65.50
2018-11-14T04:23:54.120Z,64.40
2018-11-14T04:26:47.594Z,63.45
2018-11-14T04:29:41.505Z,65.08
2018-11-14T04:32:35.236Z,64.82
2018-11-14T04:35:32.081Z,62.70
2018-11-14T04:38:25.707Z,63.68
2018-11-14T04:41:19.186Z,61.83
2018-11-14T04:44:13.708Z,62.73
2018-11-14T04:47:07.550Z,63.42
2018-11-14T04:50:09.726Z,67.50
2018-11-14T04:53:10.661Z,61.80
2018-11-14T04:56:17.111Z,62.38
2018-11-14T04:59:16.613Z,62.03
2018-11-14T05:02:17.276Z,62.67
2018-11-14T05:05:15.517Z,66.35
2018-11-14T05:08:17.271Z,62.15
2018-11-14T05:11:21.606Z,67.12
2018-11-14T05:14:22.031Z,67.90
2018-11-14T05:17:17.676Z,65.95
2018-11-14T05:20:15.071Z,65.60
2018-11-14T05:23:13.736Z,64.00
2018-11-14T05:26:18.754Z,65.03
2018-11-14T05:29:21.675Z,61.48
2018-11-14T05:32:13.779Z,61.13
2018-11-14T05:35:26.980Z,61.48
2018-11-14T05:38:22.593Z,58.15
2018-11-14T05:41:18.132Z,56.02
2018-11-14T05:44:13.836Z,56.25
2018-11-14T05:47:14.615Z,56.18
2018-11-14T05:50:11.356Z,61.73
2018-11-14T05:53:06.455Z,57.62
2018-11-14T05:56:02.686Z,55.88
2018-11-14T05:59:01.935Z,54.67
2018-11-14T06:01:57.424Z,54.55
2018-11-14T06:04:55.190Z,55.45
2018-11-14T06:07:52.112Z,54.55
2018-11-14T06:10:48.711Z,55.58
2018-11-14T06:13:45.673Z,52.25
2018-11-14T06:16:44.256Z,55.48
2018-11-14T06:19:40.623Z,53.98
2018-11-14T06:22:39.507Z,56.83
2018-11-14T06:25:37.402Z,53.28
2018-11-14T06:28:36.215Z,52.78
2018-11-14T06:31:32.155Z,53.17
2018-11-14T06:34:31.685Z,52.03
2018-11-14T06:37:30.733Z,51.63
2018-11-14T06:40:29.067Z,52.25
2018-11-14T06:43:23.114Z,51.20
2018-11-14T06:46:21.669Z,51.40
2018-11-14T06:49:18.156Z,51.23
2018-11-14T06:52:13.675Z,50.80
2018-11-14T06:55:08.986Z,51.08
2018-11-14T06:58:05.110Z,51.40
2018-11-14T07:01:06.953Z,50.48
2018-11-14T07:04:03.927Z,50.73
2018-11-14T07:07:00.579Z,50.78
2018-11-14T07:10:09.849Z,49.03
2018-11-14T07:13:19.267Z,48.63
2018-11-14T07:16:12.166Z,49.38
2018-11-14T07:19:08.742Z,49.90
2018-11-14T07:22:04.590Z,51.25
2018-11-14T07:25:01.857Z,48.85
2018-11-14T07:27:57.218Z,49.88
2018-11-14T07:30:56.650Z,47.98
2018-11-14T07:33:54.357Z,49.03
2018-11-14T07:36:49.974Z,49.00
2018-11-14T07:39:44.905Z,46.05
2018-11-14T07:42:44.090Z,47.85
2018-11-14T07:45:40.643Z,46.00
2018-11-14T07:48:35.684Z,45.48
2018-11-14T07:51:29.921Z,46.45
2018-11-14T07:54:24.862Z,46.83
2018-11-14T07:57:18.884Z,45.12
2018-11-14T08:00:18.452Z,45.98
2018-11-14T08:03:13.024Z,44.40
2018-11-14T08:06:08.207Z,43.73
2018-11-14T08:09:02.581Z,44.75
2018-11-14T08:12:00.353Z,45.28
2018-11-14T08:14:54.239Z,43.87
2018-11-14T08:17:50.640Z,43.42
2018-11-14T08:20:45.738Z,43.63
2018-11-14T08:23:41.886Z,42.48
2018-11-14T08:26:37.592Z,40.10
2018-11-14T08:29:32.710Z,43.58
2018-11-14T08:32:27.083Z,42.38
2018-11-14T08:35:21.997Z,40.83
2018-11-14T08:38:17.191Z,40.17
2018-11-14T08:41:11.988Z,38.80
2018-11-14T08:44:06.333Z,37.08
2018-11-14T08:47:03.522Z,39.33
2018-11-14T08:49:58.756Z,38.20
2018-11-14T08:53:05.517Z,36.05
2018-11-14T08:56:00.766Z,36.23
2018-11-14T08:59:00.161Z,36.45
2018-11-14T09:01:54.175Z,35.85
2018-11-14T09:04:48.789Z,39.75
2018-11-14T09:07:43.611Z,37.30
2018-11-14T09:10:37.580Z,35.48
2018-11-14T09:13:32.213Z,35.38
2018-11-14T09:16:27.679Z,36.30
2018-11-14T09:19:22.667Z,35.45
2018-11-14T09:22:18.481Z,35.38
2018-11-14T09:25:16.811Z,36.58
2018-11-14T09:28:13.736Z,35.50
2018-11-14T09:31:12.614Z,34.43
2018-11-14T09:34:10.678Z,38.05
2018-11-14T09:37:06.366Z,35.83
2018-11-14T09:40:02.223Z,35.20
2018-11-14T09:42:57.235Z,36.53
2018-11-14T09:45:55.361Z,35.30
2018-11-14T09:48:57.121Z,35.43
2018-11-14T09:51:54.824Z,34.45
2018-11-14T09:54:51.540Z,35.13
2018-11-14T09:57:48.334Z,35.48
2018-11-14T10:00:44.496Z,35.73
2018-11-14T10:03:47.041Z,34.40
2018-11-14T10:06:48.865Z,35.28
2018-11-14T10:09:44.582Z,34.83
2018-11-14T10:13:04.734Z,33.58
2018-11-14T10:15:56.212Z,35.65
2018-11-14T10:18:55.176Z,33.45
2018-11-14T10:21:50.683Z,33.92
2018-11-14T10:24:46.118Z,34.38
2018-11-14T10:27:42.771Z,34.73
2018-11-14T10:30:38.884Z,34.92
2018-11-14T10:33:36.096Z,34.25
2018-11-14T10:36:33.531Z,35.08
2018-11-14T10:39:30.381Z,34.35
2018-11-14T10:42:26.923Z,33.00
2018-11-14T10:45:26.387Z,32.03
2018-11-14T10:48:22.593Z,33.18
2018-11-14T10:51:17.706Z,32.08
2018-11-14T10:54:12.361Z,33.05
2018-11-14T10:57:10.118Z,32.25
2018-11-14T11:00:04.997Z,32.88
2018-11-14T11:03:18.898Z,31.68
2018-11-14T11:06:52.048Z,33.15
2018-11-14T11:10:07.579Z,31.75
2018-11-14T11:13:11.388Z,31.10
2018-11-14T11:16:24.657Z,31.02
2018-11-14T11:19:24.096Z,32.58
2018-11-14T11:22:20.866Z,33.02
2018-11-14T11:25:18.445Z,30.75
2018-11-14T11:28:15.300Z,31.00
2018-11-14T11:31:14.802Z,32.40
2018-11-14T11:34:26.877Z,30.90
2018-11-14T11:37:21.376Z,30.30
2018-11-14T11:40:18.686Z,31.10
2018-11-14T11:43:12.565Z,30.60
2018-11-14T11:46:09.052Z,30.43
2018-11-14T11:49:02.407Z,31.65
2018-11-14T11:52:00.868Z,29.63
2018-11-14T11:54:51.016Z,30.72
2018-11-14T11:57:47.114Z,30.37
2018-11-14T12:00:43.743Z,30.68
2018-11-14T12:03:40.744Z,30.40
2018-11-14T12:06:36.819Z,30.05
2018-11-14T12:09:30.663Z,29.75
2018-11-14T12:12:24.590Z,30.90
2018-11-14T12:15:20.074Z,30.45
2018-11-14T12:18:16.090Z,32.30
2018-11-14T12:21:17.362Z,31.37
2018-11-14T12:24:20.245Z,29.95
2018-11-14T12:27:18.180Z,33.20
2018-11-14T12:30:21.197Z,30.68
2018-11-14T12:33:17.102Z,32.28
2018-11-14T12:36:18.447Z,32.67
2018-11-14T12:39:14.159Z,30.55
2018-11-14T12:42:12.000Z,32.95
2018-11-14T12:45:08.718Z,33.88
2018-11-14T12:48:03.930Z,32.73
2018-11-14T12:50:59.151Z,32.98
2018-11-14T12:53:56.309Z,33.98
2018-11-14T12:56:51.882Z,33.25
2018-11-14T12:59:46.017Z,37.83
2018-11-14T13:02:40.059Z,35.08
2018-11-14T13:05:33.728Z,34.45
2018-11-14T13:08:28.895Z,32.95
2018-11-14T13:11:23.227Z,35.70
2018-11-14T13:14:17.756Z,34.27
2018-11-14T13:17:12.206Z,33.20
2018-11-14T13:20:06.221Z,34.35
2018-11-14T13:23:00.149Z,33.10
2018-11-14T13:25:54.891Z,34.38
2018-11-14T13:28:48.927Z,33.48
2018-11-14T13:31:42.744Z,34.00
2018-11-14T13:34:37.016Z,34.80
2018-11-14T13:37:31.062Z,34.40
2018-11-14T13:40:25.610Z,34.10
2018-11-14T13:43:19.641Z,34.48
2018-11-14T13:46:13.465Z,34.48
2018-11-14T13:49:08.046Z,34.55
2018-11-14T13:52:02.325Z,34.70
2018-11-14T13:54:56.684Z,35.92
2018-11-14T13:57:52.212Z,34.40
2018-11-14T14:00:46.466Z,34.95
2018-11-14T14:03:40.319Z,37.60
2018-11-14T14:06:34.771Z,35.17
2018-11-14T14:09:29.435Z,34.92
2018-11-14T14:12:23.515Z,36.23
2018-11-14T14:15:22.030Z,36.45
2018-11-14T14:18:16.581Z,35.35
2018-11-14T14:21:10.601Z,36.70
2018-11-14T14:24:05.658Z,36.25
2018-11-14T14:27:00.031Z,35.80
2018-11-14T14:29:54.443Z,38.10
2018-11-14T14:32:48.708Z,38.02
2018-11-14T14:35:42.929Z,36.00
2018-11-14T14:38:39.331Z,36.68
2018-11-14T14:41:33.410Z,35.95
2018-11-14T14:44:27.485Z,36.05
2018-11-14T14:47:21.785Z,37.53
2018-11-14T14:50:18.113Z,38.33
2018-11-14T14:53:13.296Z,37.90
2018-11-14T14:56:07.357Z,38.20
2018-11-14T14:59:01.660Z,36.03
2018-11-14T15:01:56.003Z,37.38
2018-11-14T15:04:49.945Z,36.75
2018-11-14T15:07:43.864Z,38.30
2018-11-14T15:10:39.260Z,38.78
2018-11-14T15:13:33.318Z,39.50
2018-11-14T15:16:27.559Z,38.67
2018-11-14T15:19:22.103Z,40.52
2018-11-14T15:22:16.107Z,38.55
2018-11-14T15:25:12.514Z,39.05
2018-11-14T15:28:06.017Z,39.78
2018-11-14T15:30:59.574Z,39.75
2018-11-14T15:33:53.073Z,39.78
2018-11-14T15:36:46.945Z,39.20
2018-11-14T15:39:40.577Z,39.95
2018-11-14T15:42:35.006Z,40.65
2018-11-14T15:45:33.028Z,41.37
2018-11-14T15:48:27.303Z,39.55
2018-11-14T15:51:20.638Z,40.08
2018-11-14T15:54:14.638Z,41.73
2018-11-14T15:57:08.439Z,40.40
2018-11-14T16:00:01.995Z,40.30
2018-11-14T16:02:55.509Z,40.80
2018-11-14T16:05:49.574Z,40.63
2018-11-14T16:08:43.303Z,39.67
2018-11-14T16:11:37.201Z,41.20
2018-11-14T16:14:30.957Z,40.78
2018-11-14T16:17:24.646Z,40.78
2018-11-14T16:20:19.977Z,39.98
2018-11-14T16:23:13.326Z,41.53
2018-11-14T16:26:07.187Z,41.37
2018-11-14T16:29:03.352Z,40.38
2018-11-14T16:31:56.676Z,40.40
2018-11-14T16:34:50.326Z,39.50
2018-11-14T16:37:44.589Z,40.45
2018-11-14T16:40:38.273Z,40.73
2018-11-14T16:43:32.298Z,39.20
2018-11-14T16:46:26.258Z,38.78
2018-11-14T16:49:19.756Z,39.10
2018-11-14T16:52:13.716Z,39.53
2018-11-14T16:55:07.459Z,40.12
2018-11-14T16:58:01.365Z,39.00
2018-11-14T17:00:55.222Z,39.40
2018-11-14T17:03:49.166Z,41.05
2018-11-14T17:06:42.980Z,39.60
2018-11-14T17:09:36.493Z,39.70
2018-11-14T17:12:30.437Z,39.05
2018-11-14T17:15:25.479Z,40.35
2018-11-14T17:18:22.478Z,40.25
2018-11-14T17:21:16.726Z,38.45
2018-11-14T17:24:16.089Z,40.25
2018-11-14T17:27:09.989Z,39.25
2018-11-14T17:30:03.596Z,39.73
2018-11-14T17:32:57.632Z,39.78
2018-11-14T17:35:52.049Z,40.70
2018-11-14T17:38:45.819Z,39.30
2018-11-14T17:41:40.031Z,39.63
2018-11-14T17:44:34.278Z,39.03
2018-11-14T17:47:28.311Z,39.60
2018-11-14T17:50:36.337Z,40.90
2018-11-14T17:53:30.400Z,40.00
2018-11-14T17:56:24.755Z,40.95
2018-11-14T17:59:18.791Z,39.92
2018-11-14T18:02:12.823Z,39.80
2018-11-14T18:05:07.255Z,39.78
2018-11-14T18:08:01.177Z,39.98
2018-11-14T18:10:56.134Z,38.48
2018-11-14T18:13:50.546Z,40.80
2018-11-14T18:16:44.795Z,39.88
2018-11-14T18:19:39.117Z,39.20
2018-11-14T18:22:33.217Z,39.20
2018-11-14T18:25:27.559Z,40.52
2018-11-14T18:28:21.546Z,39.25
2018-11-14T18:31:16.191Z,39.70
2018-11-14T18:34:10.286Z,41.95
2018-11-14T18:37:04.607Z,39.15
2018-11-14T18:39:59.082Z,40.50
2018-11-14T18:42:53.242Z,39.33
2018-11-14T18:45:47.354Z,41.23
2018-11-14T18:48:40.957Z,40.65
2018-11-14T18:51:37.647Z,41.02
2018-11-14T18:54:29.225Z,41.37
2018-11-14T18:57:23.388Z,38.48
2018-11-14T19:00:19.869Z,38.73
2018-11-14T19:03:13.885Z,37.98
2018-11-14T19:06:13.892Z,38.83
2018-11-14T19:09:09.452Z,38.60
2018-11-14T19:12:05.050Z,40.25
2018-11-14T19:14:59.077Z,38.42
2018-11-14T19:17:53.349Z,38.42
2018-11-14T19:20:47.409Z,38.65
2018-11-14T19:23:41.252Z,38.20
2018-11-14T19:26:35.591Z,38.88
2018-11-14T19:29:30.248Z,37.95
2018-11-14T19:32:24.310Z,39.25
2018-11-14T19:35:19.096Z,39.55
2018-11-14T19:38:12.957Z,39.83
2018-11-14T19:41:06.733Z,39.42
2018-11-14T19:44:00.189Z,39.30
2018-11-14T19:46:54.115Z,38.92
2018-11-14T19:49:47.910Z,38.38
2018-11-14T19:52:41.690Z,37.60
2018-11-14T19:55:36.381Z,38.28
2018-11-14T19:58:30.155Z,37.95
2018-11-14T20:01:24.145Z,37.58
2018-11-14T20:04:20.303Z,39.55
2018-11-14T20:07:13.974Z,38.80
2018-11-14T20:10:07.891Z,38.13
2018-11-14T20:13:01.760Z,38.48
2018-11-14T20:15:55.576Z,39.15
2018-11-14T20:18:50.251Z,39.90
2018-11-14T20:21:44.277Z,37.65
2018-11-14T20:24:37.763Z,37.55
2018-11-14T20:27:31.389Z,39.03
2018-11-14T20:30:35.200Z,38.75
2018-11-14T20:33:28.932Z,38.65
2018-11-14T20:36:22.616Z,38.58
2018-11-14T20:39:16.402Z,40.40
2018-11-14T20:42:10.748Z,40.45
2018-11-14T20:45:04.303Z,39.30
2018-11-14T20:47:57.883Z,40.43
2018-11-14T20:50:51.141Z,40.63
2018-11-14T20:53:45.124Z,37.80
2018-11-14T20:56:38.999Z,38.55
2018-11-14T20:59:32.646Z,39.25
2018-11-14T21:02:26.829Z,39.67
2018-11-14T21:05:20.436Z,38.67
2018-11-14T21:08:14.519Z,40.20
2018-11-14T21:11:08.884Z,40.55
2018-11-14T21:14:02.329Z,42.05
2018-11-14T21:16:57.479Z,40.55
2018-11-14T21:19:51.206Z,40.65
2018-11-14T21:22:45.064Z,39.50
2018-11-14T21:25:38.889Z,40.05
2018-11-14T21:28:32.956Z,39.58
2018-11-14T21:31:26.462Z,39.15
2018-11-14T21:34:20.027Z,40.50
2018-11-14T21:37:17.273Z,40.38
2018-11-14T21:40:07.785Z,39.58
2018-11-14T21:43:01.606Z,39.45
2018-11-14T21:45:55.286Z,39.35
2018-11-14T21:48:49.133Z,39.38
2018-11-14T21:51:43.381Z,38.80
2018-11-14T21:54:38.023Z,38.40
2018-11-14T21:57:31.706Z,38.67
2018-11-14T22:00:35.957Z,40.08
2018-11-14T22:03:29.908Z,39.45
2018-11-14T22:06:23.342Z,39.75
2018-11-14T22:09:16.959Z,39.20
2018-11-14T22:12:11.159Z,38.67
2018-11-14T22:15:04.853Z,38.75
2018-11-14T22:17:59.501Z,40.12
2018-11-14T22:20:53.406Z,38.23
2018-11-14T22:23:47.616Z,38.90
2018-11-14T22:26:40.942Z,37.55
2018-11-14T22:29:34.686Z,39.30
2018-11-14T22:32:28.897Z,39.70
2018-11-14T22:35:24.692Z,38.25
2018-11-14T22:38:18.782Z,39.27
2018-11-14T22:41:12.437Z,39.08
2018-11-14T22:44:05.969Z,40.83
2018-11-14T22:47:00.141Z,39.73
2018-11-14T22:49:54.387Z,39.15
2018-11-14T22:52:48.431Z,40.78
2018-11-14T22:55:42.195Z,43.08
2018-11-14T22:58:35.881Z,43.52
2018-11-14T23:01:29.760Z,48.10
2018-11-14T23:04:23.483Z,49.30
2018-11-14T23:07:17.587Z,49.70
2018-11-14T23:10:11.283Z,49.83
2018-11-14T23:13:04.781Z,55.08
2018-11-14T23:15:58.644Z,58.00
2018-11-14T23:18:52.703Z,60.15
2018-11-14T23:21:46.505Z,60.95
2018-11-14T23:24:40.529Z,63.23
2018-11-14T23:27:34.049Z,62.65
2018-11-14T23:30:28.638Z,64.92
2018-11-14T23:33:22.829Z,68.42
2018-11-14T23:36:16.650Z,65.57
2018-11-14T23:39:14.741Z,63.78
2018-11-14T23:42:08.624Z,65.17
2018-11-14T23:45:02.319Z,64.55
2018-11-14T23:47:59.165Z,64.10
2018-11-14T23:50:52.749Z,63.75
2018-11-14T23:53:46.429Z,67.62
2018-11-14T23:56:40.538Z,69.05
2018-11-14T23:59:34.424Z,69.07
